sensor_id;sensor_type;location;lat;lon;timestamp;pressure;altitude;pressure_sealevel;temperature
13219;BMP180;6674;49.152;11.918;2023-05-29T00:02:25;96106.38;;;16.47
13219;BMP180;6674;49.152;11.918;2023-05-29T00:04:52;96113.66;;;16.45
13219;BMP180;6674;49.152;11.918;2023-05-29T00:07:19;96117.47;;;16.38
13219;BMP180;6674;49.152;11.918;2023-05-29T00:09:46;96112.19;;;16.28
13219;BMP180;6674;49.152;11.918;2023-05-29T00:12:13;96121.03;;;16.27
13219;BMP180;6674;49.152;11.918;2023-05-29T00:14:40;96123.03;;;16.20
13219;BMP180;6674;49.152;11.918;2023-05-29T00:17:06;96122.19;;;16.15
13219;BMP180;6674;49.152;11.918;2023-05-29T00:19:34;96122.56;;;16.23
13219;BMP180;6674;49.152;11.918;2023-05-29T00:22:01;96136.66;;;16.27
13219;BMP180;6674;49.152;11.918;2023-05-29T00:24:28;96133.00;;;16.28
13219;BMP180;6674;49.152;11.918;2023-05-29T00:26:55;96121.53;;;16.24
13219;BMP180;6674;49.152;11.918;2023-05-29T00:29:22;96120.34;;;16.15
13219;BMP180;6674;49.152;11.918;2023-05-29T00:31:49;96126.81;;;16.08
13219;BMP180;6674;49.152;11.918;2023-05-29T00:34:18;96118.38;;;16.01
13219;BMP180;6674;49.152;11.918;2023-05-29T00:36:45;96125.78;;;15.88
13219;BMP180;6674;49.152;11.918;2023-05-29T00:39:12;96132.28;;;15.85
13219;BMP180;6674;49.152;11.918;2023-05-29T00:41:39;96125.25;;;15.86
13219;BMP180;6674;49.152;11.918;2023-05-29T00:44:08;96122.59;;;15.81
13219;BMP180;6674;49.152;11.918;2023-05-29T00:46:34;96118.41;;;15.80
13219;BMP180;6674;49.152;11.918;2023-05-29T00:49:01;96112.13;;;15.76
13219;BMP180;6674;49.152;11.918;2023-05-29T00:51:29;96117.34;;;15.76
13219;BMP180;6674;49.152;11.918;2023-05-29T00:53:57;96122.53;;;15.76
13219;BMP180;6674;49.152;11.918;2023-05-29T00:56:24;96117.75;;;15.68
13219;BMP180;6674;49.152;11.918;2023-05-29T00:58:51;96112.03;;;15.66
13219;BMP180;6674;49.152;11.918;2023-05-29T01:01:20;96109.91;;;15.63
13219;BMP180;6674;49.152;11.918;2023-05-29T01:03:48;96115.09;;;15.63
13219;BMP180;6674;49.152;11.918;2023-05-29T01:06:14;96122.91;;;15.63
13219;BMP180;6674;49.152;11.918;2023-05-29T01:08:41;96118.78;;;15.67
13219;BMP180;6674;49.152;11.918;2023-05-29T01:11:12;96119.59;;;15.67
13219;BMP180;6674;49.152;11.918;2023-05-29T01:13:44;96121.13;;;15.68
13219;BMP180;6674;49.152;11.918;2023-05-29T01:16:14;96128.47;;;15.71
13219;BMP180;6674;49.152;11.918;2023-05-29T01:18:51;96124.59;;;15.74
13219;BMP180;6674;49.152;11.918;2023-05-29T01:21:27;96128.22;;;15.73
13219;BMP180;6674;49.152;11.918;2023-05-29T01:24:03;96124.03;;;15.72
13219;BMP180;6674;49.152;11.918;2023-05-29T01:26:56;96123.50;;;15.70
13219;BMP180;6674;49.152;11.918;2023-05-29T01:29:26;96120.59;;;15.66
13219;BMP180;6674;49.152;11.918;2023-05-29T01:31:54;96120.31;;;15.63
13219;BMP180;6674;49.152;11.918;2023-05-29T01:34:22;96121.56;;;15.60
13219;BMP180;6674;49.152;11.918;2023-05-29T01:36:49;96113.47;;;15.57
13219;BMP180;6674;49.152;11.918;2023-05-29T01:39:16;96115.28;;;15.56
13219;BMP180;6674;49.152;11.918;2023-05-29T01:41:45;96115.53;;;15.55
13219;BMP180;6674;49.152;11.918;2023-05-29T01:44:13;96116.00;;;15.52
13219;BMP180;6674;49.152;11.918;2023-05-29T01:46:42;96111.34;;;15.54
13219;BMP180;6674;49.152;11.918;2023-05-29T01:49:11;96109.78;;;15.53
13219;BMP180;6674;49.152;11.918;2023-05-29T01:51:38;96104.03;;;15.51
13219;BMP180;6674;49.152;11.918;2023-05-29T01:54:06;96099.88;;;15.50
13219;BMP180;6674;49.152;11.918;2023-05-29T01:56:33;96097.56;;;15.53
13219;BMP180;6674;49.152;11.918;2023-05-29T01:59:02;96098.59;;;15.53
13219;BMP180;6674;49.152;11.918;2023-05-29T02:01:31;96099.56;;;15.47
13219;BMP180;6674;49.152;11.918;2023-05-29T02:03:57;96097.97;;;15.46
13219;BMP180;6674;49.152;11.918;2023-05-29T02:06:24;96096.91;;;15.42
13219;BMP180;6674;49.152;11.918;2023-05-29T02:08:51;96096.66;;;15.43
13219;BMP180;6674;49.152;11.918;2023-05-29T02:11:17;96087.81;;;15.44
13219;BMP180;6674;49.152;11.918;2023-05-29T02:13:44;96098.22;;;15.44
13219;BMP180;6674;49.152;11.918;2023-05-29T02:16:10;96089.94;;;15.47
13219;BMP180;6674;49.152;11.918;2023-05-29T02:18:38;96086.44;;;15.37
13219;BMP180;6674;49.152;11.918;2023-05-29T02:21:06;96085.63;;;15.36
13219;BMP180;6674;49.152;11.918;2023-05-29T02:23:33;96079.38;;;15.32
13219;BMP180;6674;49.152;11.918;2023-05-29T02:26:00;96084.56;;;15.32
13219;BMP180;6674;49.152;11.918;2023-05-29T02:28:26;96083.50;;;15.28
13219;BMP180;6674;49.152;11.918;2023-05-29T02:30:53;96086.56;;;15.25
13219;BMP180;6674;49.152;11.918;2023-05-29T02:33:20;96083.97;;;15.25
13219;BMP180;6674;49.152;11.918;2023-05-29T02:35:48;96082.38;;;15.24
13219;BMP180;6674;49.152;11.918;2023-05-29T02:38:15;96082.06;;;15.21
13219;BMP180;6674;49.152;11.918;2023-05-29T02:40:41;96084.13;;;15.19
13219;BMP180;6674;49.152;11.918;2023-05-29T02:43:09;96081.44;;;15.14
13219;BMP180;6674;49.152;11.918;2023-05-29T02:45:35;96088.13;;;15.10
13219;BMP180;6674;49.152;11.918;2023-05-29T02:48:02;96090.19;;;15.08
13219;BMP180;6674;49.152;11.918;2023-05-29T02:50:29;96092.47;;;15.05
13219;BMP180;6674;49.152;11.918;2023-05-29T02:52:56;96092.00;;;15.08
13219;BMP180;6674;49.152;11.918;2023-05-29T02:55:23;96088.81;;;15.01
13219;BMP180;6674;49.152;11.918;2023-05-29T02:57:50;96077.28;;;14.97
13219;BMP180;6674;49.152;11.918;2023-05-29T03:00:18;96081.41;;;14.93
13219;BMP180;6674;49.152;11.918;2023-05-29T03:02:46;96072.50;;;14.89
13219;BMP180;6674;49.152;11.918;2023-05-29T03:05:12;96076.91;;;14.88
13219;BMP180;6674;49.152;11.918;2023-05-29T03:07:39;96089.06;;;14.83
13219;BMP180;6674;49.152;11.918;2023-05-29T03:10:08;96078.34;;;14.79
13219;BMP180;6674;49.152;11.918;2023-05-29T03:12:35;96077.25;;;14.75
13219;BMP180;6674;49.152;11.918;2023-05-29T03:15:01;96072.75;;;14.71
13219;BMP180;6674;49.152;11.918;2023-05-29T03:17:28;96069.84;;;14.67
13219;BMP180;6674;49.152;11.918;2023-05-29T03:19:54;96076.41;;;14.54
13219;BMP180;6674;49.152;11.918;2023-05-29T03:22:22;96080.25;;;14.51
13219;BMP180;6674;49.152;11.918;2023-05-29T03:24:49;96075.06;;;14.51
13219;BMP180;6674;49.152;11.918;2023-05-29T03:27:17;96074.38;;;14.39
13219;BMP180;6674;49.152;11.918;2023-05-29T03:29:44;96081.34;;;14.39
13219;BMP180;6674;49.152;11.918;2023-05-29T03:32:10;96081.75;;;14.31
13219;BMP180;6674;49.152;11.918;2023-05-29T03:34:37;96073.09;;;14.25
13219;BMP180;6674;49.152;11.918;2023-05-29T03:37:05;96075.75;;;14.30
13219;BMP180;6674;49.152;11.918;2023-05-29T03:39:31;96079.94;;;14.31
13219;BMP180;6674;49.152;11.918;2023-05-29T03:42:00;96079.47;;;14.34
13219;BMP180;6674;49.152;11.918;2023-05-29T03:44:29;96080.03;;;14.36
13219;BMP180;6674;49.152;11.918;2023-05-29T03:46:56;96076.97;;;14.39
13219;BMP180;6674;49.152;11.918;2023-05-29T03:49:22;96081.91;;;14.41
13219;BMP180;6674;49.152;11.918;2023-05-29T03:51:49;96076.00;;;14.45
13219;BMP180;6674;49.152;11.918;2023-05-29T03:54:16;96085.75;;;14.38
13219;BMP180;6674;49.152;11.918;2023-05-29T03:56:42;96084.97;;;14.38
13219;BMP180;6674;49.152;11.918;2023-05-29T03:59:09;96084.19;;;14.37
13219;BMP180;6674;49.152;11.918;2023-05-29T04:01:37;96087.81;;;14.36
13219;BMP180;6674;49.152;11.918;2023-05-29T04:04:04;96090.41;;;14.36
13219;BMP180;6674;49.152;11.918;2023-05-29T04:06:30;96096.44;;;14.42
13219;BMP180;6674;49.152;11.918;2023-05-29T04:08:57;96095.22;;;14.44
13219;BMP180;6674;49.152;11.918;2023-05-29T04:11:23;96097.56;;;14.46
13219;BMP180;6674;49.152;11.918;2023-05-29T04:13:50;96098.81;;;14.43
13219;BMP180;6674;49.152;11.918;2023-05-29T04:16:17;96107.06;;;14.40
13219;BMP180;6674;49.152;11.918;2023-05-29T04:18:45;96108.56;;;14.36
13219;BMP180;6674;49.152;11.918;2023-05-29T04:21:12;96110.16;;;14.37
13219;BMP180;6674;49.152;11.918;2023-05-29T04:23:39;96112.47;;;14.39
13219;BMP180;6674;49.152;11.918;2023-05-29T04:26:05;96106.50;;;14.38
13219;BMP180;6674;49.152;11.918;2023-05-29T04:28:32;96109.66;;;14.40
13219;BMP180;6674;49.152;11.918;2023-05-29T04:30:58;96110.78;;;14.44
13219;BMP180;6674;49.152;11.918;2023-05-29T04:33:25;96107.06;;;14.40
13219;BMP180;6674;49.152;11.918;2023-05-29T04:35:55;96116.44;;;14.41
13219;BMP180;6674;49.152;11.918;2023-05-29T04:38:21;96123.00;;;14.32
13219;BMP180;6674;49.152;11.918;2023-05-29T04:40:50;96131.84;;;14.31
13219;BMP180;6674;49.152;11.918;2023-05-29T04:43:17;96126.72;;;14.36
13219;BMP180;6674;49.152;11.918;2023-05-29T04:45:44;96133.09;;;14.45
13219;BMP180;6674;49.152;11.918;2023-05-29T04:48:11;96134.13;;;14.44
13219;BMP180;6674;49.152;11.918;2023-05-29T04:50:37;96136.03;;;14.49
13219;BMP180;6674;49.152;11.918;2023-05-29T04:53:05;96138.72;;;14.54
13219;BMP180;6674;49.152;11.918;2023-05-29T04:55:32;96145.78;;;14.58
13219;BMP180;6674;49.152;11.918;2023-05-29T04:57:59;96141.06;;;14.55
13219;BMP180;6674;49.152;11.918;2023-05-29T05:00:25;96144.75;;;14.59
13219;BMP180;6674;49.152;11.918;2023-05-29T05:02:52;96149.50;;;14.62
13219;BMP180;6674;49.152;11.918;2023-05-29T05:05:19;96157.28;;;14.62
13219;BMP180;6674;49.152;11.918;2023-05-29T05:07:46;96148.44;;;14.63
13219;BMP180;6674;49.152;11.918;2023-05-29T05:10:14;96158.44;;;14.71
13219;BMP180;6674;49.152;11.918;2023-05-29T05:12:40;96163.72;;;14.76
13219;BMP180;6674;49.152;11.918;2023-05-29T05:15:08;96159.09;;;14.78
13219;BMP180;6674;49.152;11.918;2023-05-29T05:17:35;96171.50;;;14.76
13219;BMP180;6674;49.152;11.918;2023-05-29T05:20:02;96169.00;;;14.81
13219;BMP180;6674;49.152;11.918;2023-05-29T05:22:31;96171.50;;;14.76
13219;BMP180;6674;49.152;11.918;2023-05-29T05:24:57;96170.41;;;14.88
13219;BMP180;6674;49.152;11.918;2023-05-29T05:27:26;96167.13;;;14.93
13219;BMP180;6674;49.152;11.918;2023-05-29T05:29:52;96168.69;;;14.94
13219;BMP180;6674;49.152;11.918;2023-05-29T05:32:19;96178.13;;;15.00
13219;BMP180;6674;49.152;11.918;2023-05-29T05:34:46;96167.81;;;15.05
13219;BMP180;6674;49.152;11.918;2023-05-29T05:37:12;96169.19;;;15.23
13219;BMP180;6674;49.152;11.918;2023-05-29T05:39:39;96171.84;;;15.28
13219;BMP180;6674;49.152;11.918;2023-05-29T05:42:06;96166.94;;;15.32
13219;BMP180;6674;49.152;11.918;2023-05-29T05:44:34;96183.88;;;15.34
13219;BMP180;6674;49.152;11.918;2023-05-29T05:47:00;96174.22;;;15.30
13219;BMP180;6674;49.152;11.918;2023-05-29T05:49:27;96178.13;;;15.32
13219;BMP180;6674;49.152;11.918;2023-05-29T05:51:54;96182.06;;;15.35
13219;BMP180;6674;49.152;11.918;2023-05-29T05:54:20;96184.25;;;15.43
13219;BMP180;6674;49.152;11.918;2023-05-29T05:56:47;96189.28;;;15.49
13219;BMP180;6674;49.152;11.918;2023-05-29T05:59:13;96187.25;;;15.51
13219;BMP180;6674;49.152;11.918;2023-05-29T06:01:41;96196.66;;;15.57
13219;BMP180;6674;49.152;11.918;2023-05-29T06:04:08;96188.38;;;15.60
13219;BMP180;6674;49.152;11.918;2023-05-29T06:06:35;96198.06;;;15.64
13219;BMP180;6674;49.152;11.918;2023-05-29T06:09:01;96196.84;;;15.72
13219;BMP180;6674;49.152;11.918;2023-05-29T06:11:29;96200.09;;;15.79
13219;BMP180;6674;49.152;11.918;2023-05-29T06:13:57;96195.47;;;15.86
13219;BMP180;6674;49.152;11.918;2023-05-29T06:16:23;96202.34;;;15.92
13219;BMP180;6674;49.152;11.918;2023-05-29T06:18:51;96195.53;;;15.91
13219;BMP180;6674;49.152;11.918;2023-05-29T06:21:18;96200.94;;;16.05
13219;BMP180;6674;49.152;11.918;2023-05-29T06:23:45;96195.59;;;16.17
13219;BMP180;6674;49.152;11.918;2023-05-29T06:26:12;96210.31;;;16.28
13219;BMP180;6674;49.152;11.918;2023-05-29T06:28:41;96211.09;;;16.28
13219;BMP180;6674;49.152;11.918;2023-05-29T06:31:08;96212.06;;;16.43
13219;BMP180;6674;49.152;11.918;2023-05-29T06:33:35;96210.34;;;16.54
13219;BMP180;6674;49.152;11.918;2023-05-29T06:36:04;96214.56;;;16.60
13219;BMP180;6674;49.152;11.918;2023-05-29T06:38:32;96210.03;;;16.77
13219;BMP180;6674;49.152;11.918;2023-05-29T06:40:58;96215.88;;;16.88
13219;BMP180;6674;49.152;11.918;2023-05-29T06:43:25;96211.28;;;17.00
13219;BMP180;6674;49.152;11.918;2023-05-29T06:45:52;96214.22;;;17.09
13219;BMP180;6674;49.152;11.918;2023-05-29T06:48:18;96215.03;;;17.14
13219;BMP180;6674;49.152;11.918;2023-05-29T06:50:46;96230.31;;;17.32
13219;BMP180;6674;49.152;11.918;2023-05-29T06:53:14;96218.94;;;17.43
13219;BMP180;6674;49.152;11.918;2023-05-29T06:55:41;96220.03;;;17.52
13219;BMP180;6674;49.152;11.918;2023-05-29T06:58:08;96225.59;;;17.65
13219;BMP180;6674;49.152;11.918;2023-05-29T07:00:35;96222.81;;;17.81
13219;BMP180;6674;49.152;11.918;2023-05-29T07:03:02;96221.31;;;17.95
13219;BMP180;6674;49.152;11.918;2023-05-29T07:05:29;96215.63;;;18.08
13219;BMP180;6674;49.152;11.918;2023-05-29T07:07:55;96216.22;;;18.20
13219;BMP180;6674;49.152;11.918;2023-05-29T07:10:23;96224.13;;;18.35
13219;BMP180;6674;49.152;11.918;2023-05-29T07:12:50;96222.59;;;18.49
13219;BMP180;6674;49.152;11.918;2023-05-29T07:15:16;96223.69;;;18.62
13219;BMP180;6674;49.152;11.918;2023-05-29T07:17:43;96228.91;;;18.72
13219;BMP180;6674;49.152;11.918;2023-05-29T07:20:11;96228.41;;;18.80
13219;BMP180;6674;49.152;11.918;2023-05-29T07:22:40;96225.00;;;18.95
13219;BMP180;6674;49.152;11.918;2023-05-29T07:25:07;96232.38;;;19.07
13219;BMP180;6674;49.152;11.918;2023-05-29T07:27:35;96229.75;;;19.17
13219;BMP180;6674;49.152;11.918;2023-05-29T07:30:02;96232.09;;;19.19
13219;BMP180;6674;49.152;11.918;2023-05-29T07:32:29;96229.50;;;19.29
13219;BMP180;6674;49.152;11.918;2023-05-29T07:34:56;96235.00;;;19.42
13219;BMP180;6674;49.152;11.918;2023-05-29T07:37:23;96236.28;;;19.49
13219;BMP180;6674;49.152;11.918;2023-05-29T07:39:52;96221.88;;;19.62
13219;BMP180;6674;49.152;11.918;2023-05-29T07:42:20;96222.38;;;19.69
13219;BMP180;6674;49.152;11.918;2023-05-29T07:44:48;96221.06;;;19.81
13219;BMP180;6674;49.152;11.918;2023-05-29T07:47:15;96226.03;;;19.92
13219;BMP180;6674;49.152;11.918;2023-05-29T07:49:42;96222.56;;;20.02
13219;BMP180;6674;49.152;11.918;2023-05-29T07:52:08;96222.59;;;20.07
13219;BMP180;6674;49.152;11.918;2023-05-29T07:54:35;96229.34;;;20.18
13219;BMP180;6674;49.152;11.918;2023-05-29T07:57:02;96226.66;;;20.28
13219;BMP180;6674;49.152;11.918;2023-05-29T07:59:35;96224.81;;;20.33
13219;BMP180;6674;49.152;11.918;2023-05-29T08:02:03;96222.16;;;20.43
13219;BMP180;6674;49.152;11.918;2023-05-29T08:04:30;96227.31;;;20.58
13219;BMP180;6674;49.152;11.918;2023-05-29T08:06:57;96224.16;;;20.66
13219;BMP180;6674;49.152;11.918;2023-05-29T08:09:24;96232.50;;;20.73
13219;BMP180;6674;49.152;11.918;2023-05-29T08:11:51;96222.25;;;20.76
13219;BMP180;6674;49.152;11.918;2023-05-29T08:14:18;96215.84;;;20.92
13219;BMP180;6674;49.152;11.918;2023-05-29T08:16:44;96218.91;;;21.04
13219;BMP180;6674;49.152;11.918;2023-05-29T08:19:13;96219.84;;;21.18
13219;BMP180;6674;49.152;11.918;2023-05-29T08:21:39;96215.53;;;21.31
13219;BMP180;6674;49.152;11.918;2023-05-29T08:24:06;96220.16;;;21.44
13219;BMP180;6674;49.152;11.918;2023-05-29T08:26:34;96215.41;;;21.51
13219;BMP180;6674;49.152;11.918;2023-05-29T08:29:01;96218.03;;;21.51
13219;BMP180;6674;49.152;11.918;2023-05-29T08:31:29;96215.41;;;21.51
13219;BMP180;6674;49.152;11.918;2023-05-29T08:33:56;96217.34;;;21.64
13219;BMP180;6674;49.152;11.918;2023-05-29T08:36:24;96212.56;;;21.71
13219;BMP180;6674;49.152;11.918;2023-05-29T08:38:51;96219.38;;;21.72
13219;BMP180;6674;49.152;11.918;2023-05-29T08:41:24;96216.97;;;21.75
13219;BMP180;6674;49.152;11.918;2023-05-29T08:43:52;96215.09;;;21.81
13219;BMP180;6674;49.152;11.918;2023-05-29T08:46:20;96219.47;;;21.90
13219;BMP180;6674;49.152;11.918;2023-05-29T08:48:48;96214.59;;;22.02
13219;BMP180;6674;49.152;11.918;2023-05-29T08:51:19;96219.63;;;21.99
13219;BMP180;6674;49.152;11.918;2023-05-29T08:53:53;96213.25;;;22.05
13219;BMP180;6674;49.152;11.918;2023-05-29T08:56:19;96217.31;;;22.15
13219;BMP180;6674;49.152;11.918;2023-05-29T08:58:48;96221.16;;;22.28
13219;BMP180;6674;49.152;11.918;2023-05-29T09:01:16;96215.91;;;22.46
13219;BMP180;6674;49.152;11.918;2023-05-29T09:03:46;96221.75;;;22.61
13219;BMP180;6674;49.152;11.918;2023-05-29T09:06:16;96218.94;;;22.76
13219;BMP180;6674;49.152;11.918;2023-05-29T09:08:44;96220.53;;;22.91
13219;BMP180;6674;49.152;11.918;2023-05-29T09:11:14;96217.66;;;22.92
13219;BMP180;6674;49.152;11.918;2023-05-29T09:13:42;96225.63;;;23.05
13219;BMP180;6674;49.152;11.918;2023-05-29T09:16:10;96223.81;;;23.19
13219;BMP180;6674;49.152;11.918;2023-05-29T09:18:38;96216.03;;;23.28
13219;BMP180;6674;49.152;11.918;2023-05-29T09:21:07;96217.47;;;23.52
13219;BMP180;6674;49.152;11.918;2023-05-29T09:23:35;96215.19;;;23.32
13219;BMP180;6674;49.152;11.918;2023-05-29T09:26:02;96219.72;;;23.45
13219;BMP180;6674;49.152;11.918;2023-05-29T09:28:31;96215.41;;;23.49
13219;BMP180;6674;49.152;11.918;2023-05-29T09:30:58;96215.03;;;23.55
13219;BMP180;6674;49.152;11.918;2023-05-29T09:33:24;96211.78;;;23.77
13219;BMP180;6674;49.152;11.918;2023-05-29T09:35:51;96211.34;;;24.01
13219;BMP180;6674;49.152;11.918;2023-05-29T09:38:19;96209.56;;;24.10
13219;BMP180;6674;49.152;11.918;2023-05-29T09:40:46;96214.66;;;24.20
13219;BMP180;6674;49.152;11.918;2023-05-29T09:43:13;96222.56;;;24.20
13219;BMP180;6674;49.152;11.918;2023-05-29T09:45:44;96215.84;;;24.14
13219;BMP180;6674;49.152;11.918;2023-05-29T09:48:12;96215.13;;;24.22
13219;BMP180;6674;49.152;11.918;2023-05-29T09:50:39;96214.34;;;24.22
13219;BMP180;6674;49.152;11.918;2023-05-29T09:53:16;96208.00;;;24.23
13219;BMP180;6674;49.152;11.918;2023-05-29T09:55:44;96213.88;;;24.33
13219;BMP180;6674;49.152;11.918;2023-05-29T09:58:12;96210.41;;;24.59
13219;BMP180;6674;49.152;11.918;2023-05-29T10:00:40;96215.88;;;24.76
13219;BMP180;6674;49.152;11.918;2023-05-29T10:03:10;96213.22;;;24.76
13219;BMP180;6674;49.152;11.918;2023-05-29T10:05:38;96217.47;;;24.85
13219;BMP180;6674;49.152;11.918;2023-05-29T10:08:09;96223.97;;;25.15
13219;BMP180;6674;49.152;11.918;2023-05-29T10:10:42;96216.47;;;25.30
13219;BMP180;6674;49.152;11.918;2023-05-29T10:13:12;96219.75;;;25.57
13219;BMP180;6674;49.152;11.918;2023-05-29T10:15:41;96213.56;;;25.61
13219;BMP180;6674;49.152;11.918;2023-05-29T10:18:13;96212.41;;;25.76
13219;BMP180;6674;49.152;11.918;2023-05-29T10:20:46;96199.44;;;25.88
13219;BMP180;6674;49.152;11.918;2023-05-29T10:23:16;96216.03;;;25.80
13219;BMP180;6674;49.152;11.918;2023-05-29T10:25:44;96205.16;;;24.94
13219;BMP180;6674;49.152;11.918;2023-05-29T10:28:13;96191.81;;;25.13
13219;BMP180;6674;49.152;11.918;2023-05-29T10:30:45;96199.56;;;25.09
13219;BMP180;6674;49.152;11.918;2023-05-29T10:33:33;96196.84;;;25.01
13219;BMP180;6674;49.152;11.918;2023-05-29T10:36:09;96195.72;;;25.15
13219;BMP180;6674;49.152;11.918;2023-05-29T10:38:37;96198.94;;;25.34
13219;BMP180;6674;49.152;11.918;2023-05-29T10:41:29;96196.72;;;25.49
13219;BMP180;6674;49.152;11.918;2023-05-29T10:43:57;96194.81;;;25.71
13219;BMP180;6674;49.152;11.918;2023-05-29T10:49:26;96196.16;;;25.91
13219;BMP180;6674;49.152;11.918;2023-05-29T10:51:53;96195.84;;;25.92
13219;BMP180;6674;49.152;11.918;2023-05-29T10:54:22;96195.25;;;25.95
13219;BMP180;6674;49.152;11.918;2023-05-29T10:56:52;96182.25;;;25.47
13219;BMP180;6674;49.152;11.918;2023-05-29T10:59:21;96184.78;;;25.82
13219;BMP180;6674;49.152;11.918;2023-05-29T11:01:52;96197.69;;;25.83
13219;BMP180;6674;49.152;11.918;2023-05-29T11:04:30;96197.94;;;25.65
13219;BMP180;6674;49.152;11.918;2023-05-29T11:07:00;96193.00;;;25.80
13219;BMP180;6674;49.152;11.918;2023-05-29T11:09:31;96180.59;;;25.89
13219;BMP180;6674;49.152;11.918;2023-05-29T11:12:13;96181.63;;;26.18
13219;BMP180;6674;49.152;11.918;2023-05-29T11:14:53;96184.81;;;26.29
13219;BMP180;6674;49.152;11.918;2023-05-29T11:17:34;96186.09;;;26.40
13219;BMP180;6674;49.152;11.918;2023-05-29T11:20:20;96188.53;;;26.28
13219;BMP180;6674;49.152;11.918;2023-05-29T11:23:00;96181.56;;;26.32
13219;BMP180;6674;49.152;11.918;2023-05-29T11:25:28;96179.06;;;26.27
13219;BMP180;6674;49.152;11.918;2023-05-29T11:27:55;96189.53;;;26.48
13219;BMP180;6674;49.152;11.918;2023-05-29T11:30:21;96178.94;;;26.48
13219;BMP180;6674;49.152;11.918;2023-05-29T11:32:49;96184.72;;;26.67
13219;BMP180;6674;49.152;11.918;2023-05-29T11:35:21;96183.00;;;26.63
13219;BMP180;6674;49.152;11.918;2023-05-29T11:37:48;96186.94;;;26.91
13219;BMP180;6674;49.152;11.918;2023-05-29T11:40:16;96174.47;;;27.08
13219;BMP180;6674;49.152;11.918;2023-05-29T11:42:43;96177.44;;;27.15
13219;BMP180;6674;49.152;11.918;2023-05-29T11:45:14;96182.09;;;27.26
13219;BMP180;6674;49.152;11.918;2023-05-29T11:47:53;96177.72;;;27.22
13219;BMP180;6674;49.152;11.918;2023-05-29T11:50:23;96176.78;;;27.35
13219;BMP180;6674;49.152;11.918;2023-05-29T11:52:50;96180.19;;;27.52
13219;BMP180;6674;49.152;11.918;2023-05-29T11:55:18;96172.53;;;27.59
13219;BMP180;6674;49.152;11.918;2023-05-29T11:57:45;96178.44;;;27.64
13219;BMP180;6674;49.152;11.918;2023-05-29T12:00:14;96178.72;;;27.80
13219;BMP180;6674;49.152;11.918;2023-05-29T12:02:41;96177.00;;;27.75
13219;BMP180;6674;49.152;11.918;2023-05-29T12:05:09;96172.69;;;27.62
13219;BMP180;6674;49.152;11.918;2023-05-29T12:07:46;96171.63;;;27.38
13219;BMP180;6674;49.152;11.918;2023-05-29T12:10:15;96175.97;;;27.51
13219;BMP180;6674;49.152;11.918;2023-05-29T12:12:42;96182.50;;;27.62
13219;BMP180;6674;49.152;11.918;2023-05-29T12:15:09;96183.88;;;27.76
13219;BMP180;6674;49.152;11.918;2023-05-29T12:17:36;96175.78;;;27.64
13219;BMP180;6674;49.152;11.918;2023-05-29T12:20:04;96163.91;;;27.70
13219;BMP180;6674;49.152;11.918;2023-05-29T12:22:34;96175.75;;;27.73
13219;BMP180;6674;49.152;11.918;2023-05-29T12:25:09;96174.53;;;27.70
13219;BMP180;6674;49.152;11.918;2023-05-29T12:27:37;96167.63;;;27.86
13219;BMP180;6674;49.152;11.918;2023-05-29T12:30:09;96174.28;;;27.92
13219;BMP180;6674;49.152;11.918;2023-05-29T12:32:37;96174.97;;;28.18
13219;BMP180;6674;49.152;11.918;2023-05-29T12:35:12;96176.22;;;28.20
13219;BMP180;6674;49.152;11.918;2023-05-29T12:37:43;96172.81;;;28.03
13219;BMP180;6674;49.152;11.918;2023-05-29T12:40:14;96177.28;;;27.82
13219;BMP180;6674;49.152;11.918;2023-05-29T12:42:40;96172.91;;;27.32
13219;BMP180;6674;49.152;11.918;2023-05-29T12:45:08;96167.09;;;27.55
13219;BMP180;6674;49.152;11.918;2023-05-29T12:47:35;96172.41;;;27.55
13219;BMP180;6674;49.152;11.918;2023-05-29T12:50:19;96165.06;;;27.52
13219;BMP180;6674;49.152;11.918;2023-05-29T12:52:46;96161.66;;;27.35
13219;BMP180;6674;49.152;11.918;2023-05-29T12:55:13;96168.00;;;27.59
13219;BMP180;6674;49.152;11.918;2023-05-29T12:57:40;96155.88;;;27.58
13219;BMP180;6674;49.152;11.918;2023-05-29T13:00:11;96152.25;;;27.63
13219;BMP180;6674;49.152;11.918;2023-05-29T13:02:39;96159.31;;;27.50
13219;BMP180;6674;49.152;11.918;2023-05-29T13:05:06;96155.78;;;27.75
13219;BMP180;6674;49.152;11.918;2023-05-29T13:07:32;96157.47;;;27.88
13219;BMP180;6674;49.152;11.918;2023-05-29T13:10:00;96161.31;;;27.99
13219;BMP180;6674;49.152;11.918;2023-05-29T13:12:28;96154.31;;;27.94
13219;BMP180;6674;49.152;11.918;2023-05-29T13:14:55;96154.19;;;27.91
13219;BMP180;6674;49.152;11.918;2023-05-29T13:17:22;96148.88;;;27.91
13219;BMP180;6674;49.152;11.918;2023-05-29T13:19:49;96148.25;;;27.94
13219;BMP180;6674;49.152;11.918;2023-05-29T13:22:16;96150.09;;;27.93
13219;BMP180;6674;49.152;11.918;2023-05-29T13:24:43;96140.88;;;27.99
13219;BMP180;6674;49.152;11.918;2023-05-29T13:27:09;96153.47;;;28.11
13219;BMP180;6674;49.152;11.918;2023-05-29T13:29:40;96154.19;;;28.20
13219;BMP180;6674;49.152;11.918;2023-05-29T13:32:07;96145.59;;;28.23
13219;BMP180;6674;49.152;11.918;2023-05-29T13:34:34;96148.00;;;28.16
13219;BMP180;6674;49.152;11.918;2023-05-29T13:37:01;96150.97;;;27.69
13219;BMP180;6674;49.152;11.918;2023-05-29T13:39:28;96132.22;;;27.82
13219;BMP180;6674;49.152;11.918;2023-05-29T13:41:55;96145.53;;;27.65
13219;BMP180;6674;49.152;11.918;2023-05-29T13:44:22;96146.16;;;27.62
13219;BMP180;6674;49.152;11.918;2023-05-29T13:46:50;96134.13;;;27.73
13219;BMP180;6674;49.152;11.918;2023-05-29T13:49:17;96146.97;;;27.54
13219;BMP180;6674;49.152;11.918;2023-05-29T13:51:44;96135.78;;;27.49
13219;BMP180;6674;49.152;11.918;2023-05-29T13:54:12;96118.78;;;27.41
13219;BMP180;6674;49.152;11.918;2023-05-29T13:56:39;96125.22;;;27.32
13219;BMP180;6674;49.152;11.918;2023-05-29T13:59:05;96123.16;;;27.37
13219;BMP180;6674;49.152;11.918;2023-05-29T14:01:32;96120.22;;;27.31
13219;BMP180;6674;49.152;11.918;2023-05-29T14:04:01;96116.22;;;27.16
13219;BMP180;6674;49.152;11.918;2023-05-29T14:06:27;96119.34;;;26.93
13219;BMP180;6674;49.152;11.918;2023-05-29T14:08:54;96125.09;;;27.03
13219;BMP180;6674;49.152;11.918;2023-05-29T14:11:21;96119.50;;;27.05
13219;BMP180;6674;49.152;11.918;2023-05-29T14:13:48;96120.09;;;27.19
13219;BMP180;6674;49.152;11.918;2023-05-29T14:16:17;96118.06;;;27.16
13219;BMP180;6674;49.152;11.918;2023-05-29T14:18:44;96124.59;;;27.27